sensor_id;sensor_type;location;lat;lon;timestamp;P1;durP1;ratioP1;P2;durP2;ratioP2
68942;SDS011;60852;52.190;4.422;2023-10-08T00:02:16;11.59;;;9.84;;
68942;SDS011;60852;52.190;4.422;2023-10-08T00:04:47;10.39;;;9.23;;
68942;SDS011;60852;52.190;4.422;2023-10-08T00:07:16;11.14;;;9.82;;
68942;SDS011;60852;52.190;4.422;2023-10-08T00:09:49;10.52;;;9.41;;
68942;SDS011;60852;52.190;4.422;2023-10-08T00:12:18;10.33;;;9.20;;
68942;SDS011;60852;52.190;4.422;2023-10-08T00:14:45;10.36;;;9.33;;
68942;SDS011;60852;52.190;4.422;2023-10-08T00:17:14;11.17;;;9.80;;
68942;SDS011;60852;52.190;4.422;2023-10-08T00:19:42;10.78;;;9.75;;
68942;SDS011;60852;52.190;4.422;2023-10-08T00:22:11;11.12;;;10.04;;
68942;SDS011;60852;52.190;4.422;2023-10-08T00:24:39;11.38;;;10.06;;
68942;SDS011;60852;52.190;4.422;2023-10-08T00:27:09;10.48;;;9.55;;
68942;SDS011;60852;52.190;4.422;2023-10-08T00:29:35;10.64;;;9.50;;
68942;SDS011;60852;52.190;4.422;2023-10-08T00:32:05;11.25;;;10.00;;
68942;SDS011;60852;52.190;4.422;2023-10-08T00:34:37;10.36;;;9.42;;
68942;SDS011;60852;52.190;4.422;2023-10-08T00:37:07;10.65;;;9.52;;
68942;SDS011;60852;52.190;4.422;2023-10-08T00:39:34;10.60;;;9.52;;
68942;SDS011;60852;52.190;4.422;2023-10-08T00:42:03;10.52;;;9.51;;
68942;SDS011;60852;52.190;4.422;2023-10-08T00:44:31;10.73;;;9.79;;
68942;SDS011;60852;52.190;4.422;2023-10-08T00:47:01;10.55;;;9.67;;
68942;SDS011;60852;52.190;4.422;2023-10-08T00:49:29;10.38;;;9.57;;
68942;SDS011;60852;52.190;4.422;2023-10-08T00:52:04;11.46;;;10.35;;
68942;SDS011;60852;52.190;4.422;2023-10-08T00:54:33;11.38;;;10.31;;
68942;SDS011;60852;52.190;4.422;2023-10-08T00:57:12;10.46;;;9.60;;
68942;SDS011;60852;52.190;4.422;2023-10-08T00:59:45;10.00;;;9.25;;
68942;SDS011;60852;52.190;4.422;2023-10-08T01:02:18;10.39;;;9.61;;
68942;SDS011;60852;52.190;4.422;2023-10-08T01:04:49;10.17;;;9.46;;
68942;SDS011;60852;52.190;4.422;2023-10-08T01:07:15;10.77;;;9.95;;
68942;SDS011;60852;52.190;4.422;2023-10-08T01:09:43;10.70;;;9.81;;
68942;SDS011;60852;52.190;4.422;2023-10-08T01:12:14;10.61;;;9.82;;
68942;SDS011;60852;52.190;4.422;2023-10-08T01:14:41;9.70;;;9.04;;
68942;SDS011;60852;52.190;4.422;2023-10-08T01:17:08;10.11;;;9.50;;
68942;SDS011;60852;52.190;4.422;2023-10-08T01:19:37;10.35;;;9.80;;
68942;SDS011;60852;52.190;4.422;2023-10-08T01:22:06;10.18;;;9.56;;
68942;SDS011;60852;52.190;4.422;2023-10-08T01:24:42;9.76;;;9.25;;
68942;SDS011;60852;52.190;4.422;2023-10-08T01:27:08;9.74;;;9.17;;
68942;SDS011;60852;52.190;4.422;2023-10-08T01:29:37;9.72;;;9.30;;
68942;SDS011;60852;52.190;4.422;2023-10-08T01:32:03;9.76;;;9.30;;
68942;SDS011;60852;52.190;4.422;2023-10-08T01:34:35;9.55;;;9.07;;
68942;SDS011;60852;52.190;4.422;2023-10-08T01:37:01;9.95;;;9.42;;
68942;SDS011;60852;52.190;4.422;2023-10-08T01:39:29;10.06;;;9.45;;
68942;SDS011;60852;52.190;4.422;2023-10-08T01:41:57;9.90;;;9.38;;
68942;SDS011;60852;52.190;4.422;2023-10-08T01:44:22;9.71;;;9.20;;
68942;SDS011;60852;52.190;4.422;2023-10-08T01:46:49;9.81;;;9.45;;
68942;SDS011;60852;52.190;4.422;2023-10-08T01:49:15;9.58;;;9.11;;
68942;SDS011;60852;52.190;4.422;2023-10-08T01:51:41;10.00;;;9.52;;
68942;SDS011;60852;52.190;4.422;2023-10-08T01:54:14;9.36;;;8.97;;
68942;SDS011;60852;52.190;4.422;2023-10-08T01:56:42;9.65;;;9.20;;
68942;SDS011;60852;52.190;4.422;2023-10-08T01:59:09;9.79;;;9.28;;
68942;SDS011;60852;52.190;4.422;2023-10-08T02:01:35;9.50;;;9.09;;
68942;SDS011;60852;52.190;4.422;2023-10-08T02:04:01;9.33;;;9.01;;
68942;SDS011;60852;52.190;4.422;2023-10-08T02:06:26;9.53;;;9.08;;
68942;SDS011;60852;52.190;4.422;2023-10-08T02:08:52;9.47;;;8.98;;
68942;SDS011;60852;52.190;4.422;2023-10-08T02:11:18;10.13;;;9.68;;
68942;SDS011;60852;52.190;4.422;2023-10-08T02:13:45;9.43;;;8.95;;
68942;SDS011;60852;52.190;4.422;2023-10-08T02:16:17;9.93;;;9.34;;
68942;SDS011;60852;52.190;4.422;2023-10-08T02:18:43;9.77;;;9.21;;
68942;SDS011;60852;52.190;4.422;2023-10-08T02:21:09;9.17;;;8.76;;
68942;SDS011;60852;52.190;4.422;2023-10-08T02:23:35;10.24;;;9.60;;
68942;SDS011;60852;52.190;4.422;2023-10-08T02:26:02;10.40;;;9.76;;
68942;SDS011;60852;52.190;4.422;2023-10-08T02:28:28;9.18;;;8.75;;
68942;SDS011;60852;52.190;4.422;2023-10-08T02:30:54;9.07;;;8.65;;
68942;SDS011;60852;52.190;4.422;2023-10-08T02:33:19;9.60;;;9.14;;
68942;SDS011;60852;52.190;4.422;2023-10-08T02:35:45;9.45;;;9.05;;
68942;SDS011;60852;52.190;4.422;2023-10-08T02:38:12;9.51;;;9.18;;
68942;SDS011;60852;52.190;4.422;2023-10-08T02:40:41;9.13;;;8.91;;
68942;SDS011;60852;52.190;4.422;2023-10-08T02:43:12;9.67;;;9.23;;
68942;SDS011;60852;52.190;4.422;2023-10-08T02:45:39;10.02;;;9.51;;
68942;SDS011;60852;52.190;4.422;2023-10-08T02:48:06;9.74;;;9.36;;
68942;SDS011;60852;52.190;4.422;2023-10-08T02:50:42;9.90;;;9.47;;
68942;SDS011;60852;52.190;4.422;2023-10-08T02:53:10;10.02;;;9.57;;
68942;SDS011;60852;52.190;4.422;2023-10-08T02:55:37;9.69;;;9.37;;
68942;SDS011;60852;52.190;4.422;2023-10-08T02:58:09;9.71;;;9.23;;
68942;SDS011;60852;52.190;4.422;2023-10-08T03:00:42;10.22;;;9.62;;
68942;SDS011;60852;52.190;4.422;2023-10-08T03:03:09;9.77;;;9.17;;
68942;SDS011;60852;52.190;4.422;2023-10-08T03:05:41;10.19;;;9.70;;
68942;SDS011;60852;52.190;4.422;2023-10-08T03:08:11;9.78;;;9.40;;
68942;SDS011;60852;52.190;4.422;2023-10-08T03:10:38;9.91;;;9.46;;
68942;SDS011;60852;52.190;4.422;2023-10-08T03:13:05;10.01;;;9.50;;
68942;SDS011;60852;52.190;4.422;2023-10-08T03:15:31;10.62;;;10.07;;
68942;SDS011;60852;52.190;4.422;2023-10-08T03:18:12;9.79;;;9.38;;
68942;SDS011;60852;52.190;4.422;2023-10-08T03:20:41;9.80;;;9.36;;
68942;SDS011;60852;52.190;4.422;2023-10-08T03:23:08;9.93;;;9.56;;
68942;SDS011;60852;52.190;4.422;2023-10-08T03:25:41;10.51;;;9.95;;
68942;SDS011;60852;52.190;4.422;2023-10-08T03:28:09;10.08;;;9.92;;
68942;SDS011;60852;52.190;4.422;2023-10-08T03:30:38;10.64;;;10.16;;
68942;SDS011;60852;52.190;4.422;2023-10-08T03:33:13;11.61;;;10.64;;
68942;SDS011;60852;52.190;4.422;2023-10-08T03:35:47;10.81;;;10.20;;
68942;SDS011;60852;52.190;4.422;2023-10-08T03:38:20;10.55;;;9.95;;
68942;SDS011;60852;52.190;4.422;2023-10-08T03:41:09;10.98;;;10.28;;
68942;SDS011;60852;52.190;4.422;2023-10-08T03:43:41;11.22;;;10.40;;
68942;SDS011;60852;52.190;4.422;2023-10-08T03:46:21;10.24;;;9.61;;
68942;SDS011;60852;52.190;4.422;2023-10-08T03:48:49;10.94;;;10.30;;
68942;SDS011;60852;52.190;4.422;2023-10-08T03:51:19;9.97;;;9.41;;
68942;SDS011;60852;52.190;4.422;2023-10-08T03:53:46;10.18;;;9.55;;
68942;SDS011;60852;52.190;4.422;2023-10-08T03:56:31;9.69;;;9.27;;
68942;SDS011;60852;52.190;4.422;2023-10-08T03:58:57;10.12;;;9.61;;
68942;SDS011;60852;52.190;4.422;2023-10-08T04:01:28;9.93;;;9.42;;
68942;SDS011;60852;52.190;4.422;2023-10-08T04:03:58;9.91;;;9.25;;
68942;SDS011;60852;52.190;4.422;2023-10-08T04:06:27;9.79;;;9.20;;
68942;SDS011;60852;52.190;4.422;2023-10-08T04:08:56;10.26;;;9.50;;
68942;SDS011;60852;52.190;4.422;2023-10-08T04:11:48;10.76;;;10.01;;
68942;SDS011;60852;52.190;4.422;2023-10-08T04:14:14;11.31;;;10.43;;
68942;SDS011;60852;52.190;4.422;2023-10-08T04:16:41;10.46;;;9.84;;
68942;SDS011;60852;52.190;4.422;2023-10-08T04:19:07;10.76;;;9.96;;
68942;SDS011;60852;52.190;4.422;2023-10-08T04:21:33;10.79;;;10.09;;
68942;SDS011;60852;52.190;4.422;2023-10-08T04:23:59;10.58;;;9.92;;
68942;SDS011;60852;52.190;4.422;2023-10-08T04:26:29;10.47;;;9.76;;
68942;SDS011;60852;52.190;4.422;2023-10-08T04:28:57;10.99;;;10.15;;
68942;SDS011;60852;52.190;4.422;2023-10-08T04:31:26;10.79;;;9.97;;
68942;SDS011;60852;52.190;4.422;2023-10-08T04:34:08;10.66;;;10.04;;
68942;SDS011;60852;52.190;4.422;2023-10-08T04:36:47;10.49;;;9.93;;
68942;SDS011;60852;52.190;4.422;2023-10-08T04:39:19;12.20;;;11.37;;
68942;SDS011;60852;52.190;4.422;2023-10-08T04:42:00;12.83;;;12.01;;
68942;SDS011;60852;52.190;4.422;2023-10-08T04:44:37;12.05;;;11.54;;
68942;SDS011;60852;52.190;4.422;2023-10-08T04:47:06;12.24;;;11.84;;
68942;SDS011;60852;52.190;4.422;2023-10-08T04:49:52;11.87;;;11.65;;
68942;SDS011;60852;52.190;4.422;2023-10-08T04:52:18;12.20;;;11.95;;
68942;SDS011;60852;52.190;4.422;2023-10-08T04:54:45;12.47;;;12.30;;
68942;SDS011;60852;52.190;4.422;2023-10-08T04:57:18;13.23;;;13.07;;
68942;SDS011;60852;52.190;4.422;2023-10-08T04:59:47;13.66;;;13.59;;
68942;SDS011;60852;52.190;4.422;2023-10-08T05:02:15;14.48;;;14.32;;
68942;SDS011;60852;52.190;4.422;2023-10-08T05:05:14;15.24;;;14.94;;
68942;SDS011;60852;52.190;4.422;2023-10-08T05:07:39;14.87;;;14.62;;
68942;SDS011;60852;52.190;4.422;2023-10-08T05:10:20;14.96;;;14.71;;
68942;SDS011;60852;52.190;4.422;2023-10-08T05:12:48;15.70;;;15.50;;
68942;SDS011;60852;52.190;4.422;2023-10-08T05:15:26;14.91;;;14.57;;
68942;SDS011;60852;52.190;4.422;2023-10-08T05:18:15;14.79;;;14.53;;
68942;SDS011;60852;52.190;4.422;2023-10-08T05:20:43;14.89;;;14.70;;
68942;SDS011;60852;52.190;4.422;2023-10-08T05:23:12;14.67;;;14.57;;
68942;SDS011;60852;52.190;4.422;2023-10-08T05:25:54;15.44;;;15.28;;
68942;SDS011;60852;52.190;4.422;2023-10-08T05:28:30;15.50;;;15.30;;
68942;SDS011;60852;52.190;4.422;2023-10-08T05:31:07;15.59;;;15.32;;
68942;SDS011;60852;52.190;4.422;2023-10-08T05:33:38;15.60;;;15.35;;
68942;SDS011;60852;52.190;4.422;2023-10-08T05:36:23;14.26;;;13.99;;
68942;SDS011;60852;52.190;4.422;2023-10-08T05:39:07;13.09;;;12.87;;
68942;SDS011;60852;52.190;4.422;2023-10-08T05:41:51;12.89;;;12.70;;
68942;SDS011;60852;52.190;4.422;2023-10-08T05:44:17;12.95;;;12.79;;
68942;SDS011;60852;52.190;4.422;2023-10-08T05:46:43;11.76;;;11.62;;
68942;SDS011;60852;52.190;4.422;2023-10-08T05:49:16;10.06;;;10.01;;
68942;SDS011;60852;52.190;4.422;2023-10-08T05:52:01;8.59;;;8.54;;
68942;SDS011;60852;52.190;4.422;2023-10-08T05:54:27;7.20;;;7.04;;
68942;SDS011;60852;52.190;4.422;2023-10-08T05:56:52;5.73;;;5.66;;
68942;SDS011;60852;52.190;4.422;2023-10-08T06:05:06;3.91;;;3.85;;
68942;SDS011;60852;52.190;4.422;2023-10-08T06:07:37;3.98;;;3.91;;
68942;SDS011;60852;52.190;4.422;2023-10-08T06:10:18;3.80;;;3.74;;
68942;SDS011;60852;52.190;4.422;2023-10-08T06:15:47;3.32;;;3.26;;
68942;SDS011;60852;52.190;4.422;2023-10-08T06:18:31;3.81;;;3.74;;
68942;SDS011;60852;52.190;4.422;2023-10-08T06:20:59;4.49;;;4.39;;
68942;SDS011;60852;52.190;4.422;2023-10-08T06:23:33;5.03;;;4.89;;
68942;SDS011;60852;52.190;4.422;2023-10-08T06:26:00;5.15;;;5.04;;
68942;SDS011;60852;52.190;4.422;2023-10-08T06:28:35;5.42;;;5.34;;
68942;SDS011;60852;52.190;4.422;2023-10-08T06:31:01;5.80;;;5.72;;
68942;SDS011;60852;52.190;4.422;2023-10-08T06:33:41;5.70;;;5.62;;
68942;SDS011;60852;52.190;4.422;2023-10-08T06:36:07;6.43;;;6.39;;
68942;SDS011;60852;52.190;4.422;2023-10-08T06:38:35;8.71;;;8.63;;
68942;SDS011;60852;52.190;4.422;2023-10-08T06:41:04;9.15;;;9.01;;
68942;SDS011;60852;52.190;4.422;2023-10-08T06:43:34;10.82;;;10.59;;
68942;SDS011;60852;52.190;4.422;2023-10-08T06:46:02;11.16;;;10.90;;
68942;SDS011;60852;52.190;4.422;2023-10-08T06:48:28;11.11;;;10.86;;
68942;SDS011;60852;52.190;4.422;2023-10-08T06:50:54;11.22;;;10.99;;
68942;SDS011;60852;52.190;4.422;2023-10-08T06:53:22;10.54;;;10.29;;
68942;SDS011;60852;52.190;4.422;2023-10-08T06:55:48;10.16;;;9.88;;
68942;SDS011;60852;52.190;4.422;2023-10-08T06:58:21;9.83;;;9.80;;
68942;SDS011;60852;52.190;4.422;2023-10-08T07:00:50;9.76;;;9.72;;
68942;SDS011;60852;52.190;4.422;2023-10-08T07:03:17;9.14;;;8.88;;
68942;SDS011;60852;52.190;4.422;2023-10-08T07:05:46;8.93;;;8.82;;
68942;SDS011;60852;52.190;4.422;2023-10-08T07:08:23;9.97;;;9.87;;
68942;SDS011;60852;52.190;4.422;2023-10-08T07:10:50;8.70;;;8.68;;
68942;SDS011;60852;52.190;4.422;2023-10-08T07:13:17;7.88;;;7.79;;
68942;SDS011;60852;52.190;4.422;2023-10-08T07:15:44;7.03;;;7.02;;
68942;SDS011;60852;52.190;4.422;2023-10-08T07:18:13;6.29;;;6.28;;
68942;SDS011;60852;52.190;4.422;2023-10-08T07:20:40;5.50;;;5.43;;
68942;SDS011;60852;52.190;4.422;2023-10-08T07:23:10;4.92;;;4.89;;
68942;SDS011;60852;52.190;4.422;2023-10-08T07:25:59;4.49;;;4.45;;
68942;SDS011;60852;52.190;4.422;2023-10-08T07:28:37;4.45;;;4.31;;
68942;SDS011;60852;52.190;4.422;2023-10-08T07:31:05;4.59;;;4.37;;
68942;SDS011;60852;52.190;4.422;2023-10-08T07:33:43;4.51;;;4.25;;
68942;SDS011;60852;52.190;4.422;2023-10-08T07:36:12;5.13;;;4.83;;
68942;SDS011;60852;52.190;4.422;2023-10-08T07:38:39;5.60;;;5.26;;
68942;SDS011;60852;52.190;4.422;2023-10-08T07:41:09;5.79;;;5.36;;
68942;SDS011;60852;52.190;4.422;2023-10-08T07:43:38;6.08;;;5.58;;
68942;SDS011;60852;52.190;4.422;2023-10-08T07:46:04;7.00;;;6.35;;
68942;SDS011;60852;52.190;4.422;2023-10-08T07:48:31;6.75;;;5.98;;
68942;SDS011;60852;52.190;4.422;2023-10-08T07:50:56;6.98;;;5.95;;
68942;SDS011;60852;52.190;4.422;2023-10-08T07:53:25;6.29;;;5.45;;
68942;SDS011;60852;52.190;4.422;2023-10-08T07:56:03;6.02;;;5.25;;
68942;SDS011;60852;52.190;4.422;2023-10-08T07:58:32;6.43;;;5.56;;
68942;SDS011;60852;52.190;4.422;2023-10-08T08:01:02;5.70;;;4.98;;
68942;SDS011;60852;52.190;4.422;2023-10-08T08:03:35;5.22;;;4.65;;
68942;SDS011;60852;52.190;4.422;2023-10-08T08:06:08;5.50;;;4.89;;
68942;SDS011;60852;52.190;4.422;2023-10-08T08:08:35;5.45;;;4.83;;
68942;SDS011;60852;52.190;4.422;2023-10-08T08:11:02;5.54;;;4.93;;
68942;SDS011;60852;52.190;4.422;2023-10-08T08:13:35;5.65;;;4.91;;
68942;SDS011;60852;52.190;4.422;2023-10-08T08:16:01;6.05;;;5.27;;
68942;SDS011;60852;52.190;4.422;2023-10-08T08:18:49;5.72;;;5.11;;
68942;SDS011;60852;52.190;4.422;2023-10-08T08:21:22;6.13;;;5.45;;
68942;SDS011;60852;52.190;4.422;2023-10-08T08:23:48;6.56;;;5.75;;
68942;SDS011;60852;52.190;4.422;2023-10-08T08:26:15;5.97;;;5.21;;
68942;SDS011;60852;52.190;4.422;2023-10-08T08:31:25;5.26;;;4.83;;
68942;SDS011;60852;52.190;4.422;2023-10-08T08:33:51;5.06;;;4.57;;
68942;SDS011;60852;52.190;4.422;2023-10-08T08:36:35;4.66;;;4.27;;
68942;SDS011;60852;52.190;4.422;2023-10-08T08:39:04;3.87;;;3.65;;
68942;SDS011;60852;52.190;4.422;2023-10-08T08:41:36;3.74;;;3.65;;
68942;SDS011;60852;52.190;4.422;2023-10-08T08:44:03;3.52;;;3.47;;
68942;SDS011;60852;52.190;4.422;2023-10-08T08:46:35;3.73;;;3.66;;
68942;SDS011;60852;52.190;4.422;2023-10-08T08:49:03;3.63;;;3.58;;
68942;SDS011;60852;52.190;4.422;2023-10-08T08:51:33;3.47;;;3.43;;
68942;SDS011;60852;52.190;4.422;2023-10-08T08:54:03;3.37;;;3.32;;
68942;SDS011;60852;52.190;4.422;2023-10-08T08:56:35;3.32;;;3.27;;
68942;SDS011;60852;52.190;4.422;2023-10-08T08:59:06;3.23;;;3.17;;
68942;SDS011;60852;52.190;4.422;2023-10-08T09:01:41;3.24;;;3.19;;
68942;SDS011;60852;52.190;4.422;2023-10-08T09:04:07;2.71;;;2.68;;
68942;SDS011;60852;52.190;4.422;2023-10-08T09:06:36;2.65;;;2.63;;
68942;SDS011;60852;52.190;4.422;2023-10-08T09:09:06;2.53;;;2.51;;
68942;SDS011;60852;52.190;4.422;2023-10-08T09:11:50;2.73;;;2.70;;
68942;SDS011;60852;52.190;4.422;2023-10-08T09:14:20;2.65;;;2.62;;
68942;SDS011;60852;52.190;4.422;2023-10-08T09:16:47;2.73;;;2.71;;
68942;SDS011;60852;52.190;4.422;2023-10-08T09:19:13;2.33;;;2.30;;
68942;SDS011;60852;52.190;4.422;2023-10-08T09:22:28;2.15;;;2.12;;
68942;SDS011;60852;52.190;4.422;2023-10-08T09:24:40;2.12;;;2.09;;
68942;SDS011;60852;52.190;4.422;2023-10-08T09:27:10;1.87;;;1.85;;
68942;SDS011;60852;52.190;4.422;2023-10-08T09:29:39;1.66;;;1.64;;
68942;SDS011;60852;52.190;4.422;2023-10-08T09:32:07;1.78;;;1.76;;
68942;SDS011;60852;52.190;4.422;2023-10-08T09:34:34;1.47;;;1.46;;
68942;SDS011;60852;52.190;4.422;2023-10-08T09:37:01;1.72;;;1.71;;
68942;SDS011;60852;52.190;4.422;2023-10-08T09:39:28;1.74;;;1.73;;
68942;SDS011;60852;52.190;4.422;2023-10-08T09:41:56;1.78;;;1.77;;
68942;SDS011;60852;52.190;4.422;2023-10-08T09:44:23;1.85;;;1.83;;
68942;SDS011;60852;52.190;4.422;2023-10-08T09:47:08;2.01;;;1.99;;
68942;SDS011;60852;52.190;4.422;2023-10-08T09:49:40;1.96;;;1.95;;
68942;SDS011;60852;52.190;4.422;2023-10-08T09:52:09;1.84;;;1.83;;
68942;SDS011;60852;52.190;4.422;2023-10-08T09:54:44;1.91;;;1.90;;
68942;SDS011;60852;52.190;4.422;2023-10-08T09:57:21;2.24;;;2.21;;
68942;SDS011;60852;52.190;4.422;2023-10-08T09:59:51;2.03;;;2.01;;
68942;SDS011;60852;52.190;4.422;2023-10-08T10:02:16;2.11;;;2.10;;
68942;SDS011;60852;52.190;4.422;2023-10-08T10:04:48;2.17;;;2.15;;
68942;SDS011;60852;52.190;4.422;2023-10-08T10:07:17;2.42;;;2.39;;
68942;SDS011;60852;52.190;4.422;2023-10-08T10:09:46;2.55;;;2.54;;
68942;SDS011;60852;52.190;4.422;2023-10-08T10:12:24;2.72;;;2.72;;
68942;SDS011;60852;52.190;4.422;2023-10-08T10:14:54;2.41;;;2.39;;
68942;SDS011;60852;52.190;4.422;2023-10-08T10:17:23;2.58;;;2.56;;
68942;SDS011;60852;52.190;4.422;2023-10-08T10:19:54;2.38;;;2.38;;
68942;SDS011;60852;52.190;4.422;2023-10-08T10:22:28;2.64;;;2.64;;
68942;SDS011;60852;52.190;4.422;2023-10-08T10:25:03;2.46;;;2.45;;
68942;SDS011;60852;52.190;4.422;2023-10-08T10:27:41;2.62;;;2.62;;
68942;SDS011;60852;52.190;4.422;2023-10-08T10:30:16;2.88;;;2.88;;
68942;SDS011;60852;52.190;4.422;2023-10-08T10:32:44;3.01;;;3.01;;
68942;SDS011;60852;52.190;4.422;2023-10-08T10:35:15;2.95;;;2.95;;
68942;SDS011;60852;52.190;4.422;2023-10-08T10:37:43;3.43;;;3.43;;
68942;SDS011;60852;52.190;4.422;2023-10-08T10:40:25;3.57;;;3.57;;
68942;SDS011;60852;52.190;4.422;2023-10-08T10:43:06;3.13;;;3.12;;
68942;SDS011;60852;52.190;4.422;2023-10-08T10:45:34;3.47;;;3.45;;
68942;SDS011;60852;52.190;4.422;2023-10-08T10:48:08;3.39;;;3.38;;
68942;SDS011;60852;52.190;4.422;2023-10-08T10:50:46;3.51;;;3.46;;
68942;SDS011;60852;52.190;4.422;2023-10-08T10:53:23;3.28;;;3.27;;
68942;SDS011;60852;52.190;4.422;2023-10-08T10:55:52;3.60;;;3.59;;
68942;SDS011;60852;52.190;4.422;2023-10-08T10:58:28;3.62;;;3.60;;
68942;SDS011;60852;52.190;4.422;2023-10-08T11:01:03;3.88;;;3.85;;
68942;SDS011;60852;52.190;4.422;2023-10-08T11:03:33;3.83;;;3.78;;
68942;SDS011;60852;52.190;4.422;2023-10-08T11:06:00;3.79;;;3.73;;
68942;SDS011;60852;52.190;4.422;2023-10-08T11:08:31;3.89;;;3.83;;
68942;SDS011;60852;52.190;4.422;2023-10-08T11:11:01;3.75;;;3.72;;
68942;SDS011;60852;52.190;4.422;2023-10-08T11:13:32;3.91;;;3.87;;
68942;SDS011;60852;52.190;4.422;2023-10-08T11:16:05;4.28;;;4.26;;
68942;SDS011;60852;52.190;4.422;2023-10-08T11:18:35;4.09;;;4.06;;
68942;SDS011;60852;52.190;4.422;2023-10-08T11:21:08;4.86;;;4.78;;
68942;SDS011;60852;52.190;4.422;2023-10-08T11:23:42;4.42;;;4.30;;
68942;SDS011;60852;52.190;4.422;2023-10-08T11:26:23;4.83;;;4.71;;
68942;SDS011;60852;52.190;4.422;2023-10-08T11:29:04;5.16;;;5.04;;
68942;SDS011;60852;52.190;4.422;2023-10-08T11:31:39;5.28;;;5.17;;
68942;SDS011;60852;52.190;4.422;2023-10-08T11:34:05;5.55;;;5.41;;
68942;SDS011;60852;52.190;4.422;2023-10-08T11:36:38;5.80;;;5.75;;
68942;SDS011;60852;52.190;4.422;2023-10-08T11:39:18;5.07;;;5.03;;
68942;SDS011;60852;52.190;4.422;2023-10-08T11:44:51;5.24;;;5.15;;
68942;SDS011;60852;52.190;4.422;2023-10-08T11:47:17;6.71;;;6.62;;
68942;SDS011;60852;52.190;4.422;2023-10-08T11:49:46;32.17;;;31.84;;
68942;SDS011;60852;52.190;4.422;2023-10-08T11:52:13;13.09;;;13.08;;
68942;SDS011;60852;52.190;4.422;2023-10-08T11:54:41;5.72;;;5.70;;
68942;SDS011;60852;52.190;4.422;2023-10-08T11:57:07;5.48;;;5.45;;
68942;SDS011;60852;52.190;4.422;2023-10-08T11:59:34;5.82;;;5.79;;
68942;SDS011;60852;52.190;4.422;2023-10-08T12:02:05;5.66;;;5.60;;
68942;SDS011;60852;52.190;4.422;2023-10-08T12:04:31;7.16;;;7.06;;
68942;SDS011;60852;52.190;4.422;2023-10-08T12:06:56;7.17;;;7.13;;
68942;SDS011;60852;52.190;4.422;2023-10-08T12:09:22;8.95;;;8.92;;
68942;SDS011;60852;52.190;4.422;2023-10-08T12:11:52;10.00;;;10.00;;
68942;SDS011;60852;52.190;4.422;2023-10-08T12:14:18;10.15;;;10.12;;
68942;SDS011;60852;52.190;4.422;2023-10-08T12:16:44;14.19;;;14.19;;
68942;SDS011;60852;52.190;4.422;2023-10-08T12:19:10;7.50;;;7.49;;
68942;SDS011;60852;52.190;4.422;2023-10-08T12:21:42;6.86;;;6.85;;
68942;SDS011;60852;52.190;4.422;2023-10-08T12:24:11;7.38;;;7.36;;
68942;SDS011;60852;52.190;4.422;2023-10-08T12:26:37;6.67;;;6.65;;
68942;SDS011;60852;52.190;4.422;2023-10-08T12:29:11;6.83;;;6.77;;
68942;SDS011;60852;52.190;4.422;2023-10-08T12:31:40;6.80;;;6.74;;
68942;SDS011;60852;52.190;4.422;2023-10-08T12:34:06;6.71;;;6.67;;
68942;SDS011;60852;52.190;4.422;2023-10-08T12:36:32;7.12;;;7.02;;
68942;SDS011;60852;52.190;4.422;2023-10-08T12:39:01;7.18;;;7.08;;
68942;SDS011;60852;52.190;4.422;2023-10-08T12:41:39;6.95;;;6.85;;
68942;SDS011;60852;52.190;4.422;2023-10-08T12:44:09;7.52;;;7.43;;
68942;SDS011;60852;52.190;4.422;2023-10-08T12:46:35;7.32;;;7.20;;
68942;SDS011;60852;52.190;4.422;2023-10-08T12:49:01;7.36;;;7.27;;
68942;SDS011;60852;52.190;4.422;2023-10-08T12:51:28;7.33;;;7.25;;
68942;SDS011;60852;52.190;4.422;2023-10-08T12:53:57;7.89;;;7.75;;
68942;SDS011;60852;52.190;4.422;2023-10-08T12:56:32;7.84;;;7.73;;
68942;SDS011;60852;52.190;4.422;2023-10-08T12:59:03;7.81;;;7.62;;
68942;SDS011;60852;52.190;4.422;2023-10-08T13:01:35;7.55;;;7.43;;
68942;SDS011;60852;52.190;4.422;2023-10-08T13:04:01;7.96;;;7.82;;
68942;SDS011;60852;52.190;4.422;2023-10-08T13:06:32;7.82;;;7.66;;
68942;SDS011;60852;52.190;4.422;2023-10-08T13:09:02;7.89;;;7.72;;
68942;SDS011;60852;52.190;4.422;2023-10-08T13:11:34;7.70;;;7.60;;
68942;SDS011;60852;52.190;4.422;2023-10-08T13:13:59;7.82;;;7.66;;
68942;SDS011;60852;52.190;4.422;2023-10-08T13:16:25;7.49;;;7.39;;
68942;SDS011;60852;52.190;4.422;2023-10-08T13:18:56;8.61;;;8.49;;
68942;SDS011;60852;52.190;4.422;2023-10-08T13:21:26;9.01;;;8.85;;
68942;SDS011;60852;52.190;4.422;2023-10-08T13:23:53;8.40;;;8.22;;
68942;SDS011;60852;52.190;4.422;2023-10-08T13:26:24;8.65;;;8.44;;
68942;SDS011;60852;52.190;4.422;2023-10-08T13:28:56;8.55;;;8.45;;
68942;SDS011;60852;52.190;4.422;2023-10-08T13:31:24;9.46;;;9.39;;
68942;SDS011;60852;52.190;4.422;2023-10-08T13:33:50;10.07;;;9.78;;
68942;SDS011;60852;52.190;4.422;2023-10-08T13:36:17;9.53;;;9.30;;
68942;SDS011;60852;52.190;4.422;2023-10-08T13:38:43;8.70;;;8.54;;
68942;SDS011;60852;52.190;4.422;2023-10-08T13:41:11;8.43;;;8.35;;
68942;SDS011;60852;52.190;4.422;2023-10-08T13:43:43;8.33;;;8.28;;
68942;SDS011;60852;52.190;4.422;2023-10-08T13:46:11;9.44;;;9.30;;
68942;SDS011;60852;52.190;4.422;2023-10-08T13:48:39;8.99;;;8.85;;
68942;SDS011;60852;52.190;4.422;2023-10-08T13:51:06;9.48;;;9.35;;
68942;SDS011;60852;52.190;4.422;2023-10-08T13:53:39;10.07;;;10.00;;
68942;SDS011;60852;52.190;4.422;2023-10-08T13:56:06;9.11;;;9.08;;
68942;SDS011;60852;52.190;4.422;2023-10-08T13:58:31;9.46;;;9.34;;
68942;SDS011;60852;52.190;4.422;2023-10-08T14:01:00;10.30;;;10.04;;
68942;SDS011;60852;52.190;4.422;2023-10-08T14:03:27;9.21;;;9.14;;
68942;SDS011;60852;52.190;4.422;2023-10-08T14:05:56;9.74;;;9.66;;
68942;SDS011;60852;52.190;4.422;2023-10-08T14:08:30;9.50;;;9.41;;
68942;SDS011;60852;52.190;4.422;2023-10-08T14:10:59;10.16;;;10.01;;
68942;SDS011;60852;52.190;4.422;2023-10-08T14:13:31;10.28;;;10.12;;
68942;SDS011;60852;52.190;4.422;2023-10-08T14:16:00;11.10;;;10.99;;
68942;SDS011;60852;52.190;4.422;2023-10-08T14:18:33;10.09;;;10.00;;
68942;SDS011;60852;52.190;4.422;2023-10-08T14:21:09;10.45;;;10.34;;
68942;SDS011;60852;52.190;4.422;2023-10-08T14:23:38;10.77;;;10.70;;
68942;SDS011;60852;52.190;4.422;2023-10-08T14:26:07;11.56;;;11.47;;
68942;SDS011;60852;52.190;4.422;2023-10-08T14:28:34;11.49;;;11.38;;
68942;SDS011;60852;52.190;4.422;2023-10-08T14:31:16;11.72;;;11.58;;
68942;SDS011;60852;52.190;4.422;2023-10-08T14:33:42;12.30;;;12.12;;
68942;SDS011;60852;52.190;4.422;2023-10-08T14:36:22;11.75;;;11.62;;
68942;SDS011;60852;52.190;4.422;2023-10-08T14:39:07;11.54;;;11.42;;
68942;SDS011;60852;52.190;4.422;2023-10-08T14:41:51;12.07;;;11.90;;
68942;SDS011;60852;52.190;4.422;2023-10-08T14:44:35;12.38;;;12.24;;
68942;SDS011;60852;52.190;4.422;2023-10-08T14:47:03;12.35;;;12.27;;
68942;SDS011;60852;52.190;4.422;2023-10-08T14:49:29;12.82;;;12.67;;
68942;SDS011;60852;52.190;4.422;2023-10-08T14:51:55;12.36;;;12.17;;
68942;SDS011;60852;52.190;4.422;2023-10-08T14:54:21;11.28;;;11.17;;
68942;SDS011;60852;52.190;4.422;2023-10-08T14:56:46;10.91;;;10.88;;
68942;SDS011;60852;52.190;4.422;2023-10-08T14:59:12;11.55;;;11.52;;
68942;SDS011;60852;52.190;4.422;2023-10-08T15:01:38;11.23;;;11.11;;
68942;SDS011;60852;52.190;4.422;2023-10-08T15:04:04;12.34;;;12.21;;
68942;SDS011;60852;52.190;4.422;2023-10-08T15:06:32;12.57;;;12.50;;
68942;SDS011;60852;52.190;4.422;2023-10-08T15:08:58;12.58;;;12.44;;
68942;SDS011;60852;52.190;4.422;2023-10-08T15:11:24;13.09;;;12.98;;
68942;SDS011;60852;52.190;4.422;2023-10-08T15:13:55;13.47;;;13.28;;
68942;SDS011;60852;52.190;4.422;2023-10-08T15:16:21;13.75;;;13.55;;